Latest Weather Observations for Nhill Aerodrome

IDV60801

Issued at 12:32 pm EST Sunday 24 July 2016 (issued every 30 minutes, with the page automatically refreshed every 10 minutes)

About weather observations | Map of weather stations | Latest weather observations for VIC | Other Formats
Station Details ID: 078015 Name: NHILL AERODROME Lat: -36.31 Lon: 141.65 Height: 138.9 m
Data from the previous 72 hours. | See also: Recent months at Nhill Aerodrome
Date/Time
EST
Temp
°C
App
Temp
°C
Dew
Point
°C
Rel
Hum
%
Delta-T
°C
Wind Press
QNH
hPa
Press
MSL
hPa
Rain since
9am
mm
Dir  Spd
km/h
Gust
km/h
Spd
kts
Gust
kts
24/12:30pm 10.9 3.5 4.1 63 3.1 NNW 32 48 17 26 1006.5 1006.7 0.0
24/12:25pm 10.7 4.1 4.2 64 2.9 NNW 28 46 15 25 1006.6 1006.8 0.0
24/12:00pm 10.7 5.1 5.3 69 2.5 N 24 39 13 21 1007.1 1007.3 0.0
24/11:30am 9.8 4.1 5.0 72 2.2 N 24 35 13 19 1007.8 1008.0 0.0
24/11:00am 8.7 3.4 4.9 77 1.7 N 22 32 12 17 1008.4 1008.6 0.0
24/10:30am 8.1 3.5 5.4 83 1.2 N 19 26 10 14 1008.8 1009.0 0.0
24/10:00am 6.9 1.9 4.6 85 1.0 N 20 30 11 16 1009.0 1009.2 0.0
24/09:30am 6.1 1.2 3.9 86 0.9 N 19 30 10 16 1009.3 1009.5 0.0
24/09:00am 4.9 0.9 3.1 88 0.7 N 13 20 7 11 1009.5 1009.7 0.2
24/08:30am 4.3 0.3 2.7 89 0.7 N 13 20 7 11 1009.7 1009.9 0.2
24/08:00am 3.7 -0.4 2.1 89 0.6 N 13 20 7 11 1009.8 1010.0 0.2
24/07:30am 4.3 0.3 2.7 89 0.7 N 13 20 7 11 1010.0 1010.2 0.2
24/07:00am 3.9 -0.1 2.7 92 0.5 N 13 17 7 9 1010.2 1010.4 0.2
24/06:30am 3.5 -0.6 2.3 92 0.5 NNE 13 19 7 10 1009.9 1010.1 0.2
24/06:00am 4.1 0.5 3.1 93 0.4 N 11 17 6 9 1010.2 1010.4 0.2
24/05:30am 3.6 0.3 2.6 93 0.4 N 9 15 5 8 1010.3 1010.5 0.0
24/05:00am 3.9 0.3 2.7 92 0.5 N 11 17 6 9 1010.6 1010.8 0.0
24/04:30am 4.3 1.1 3.1 92 0.5 N 9 11 5 6 1011.1 1011.3 0.0
24/04:00am 3.6 0.7 2.6 93 0.4 N 7 11 4 6 1011.4 1011.6 0.0
24/03:30am 3.9 1.2 2.9 93 0.4 N 6 11 3 6 1011.9 1012.1 0.0
24/03:00am 3.6 0.9 2.6 93 0.4 N 6 7 3 4 1012.5 1012.8 0.0
24/02:30am 3.4 0.5 2.4 93 0.4 WNW 7 11 4 6 1012.9 1013.2 0.0
24/02:00am 4.3 0.7 3.0 91 0.5 NNW 11 13 6 7 1013.2 1013.4 0.0
24/01:30am 4.4 1.2 3.1 91 0.5 NNW 9 11 5 6 1013.3 1013.5 0.0
24/01:00am 4.8 1.7 3.5 91 0.5 N 9 11 5 6 1013.3 1013.5 0.0
24/12:30am 5.0 1.9 3.5 90 0.6 NNW 9 11 5 6 1013.6 1013.8 0.0
24/12:00am 4.6 1.4 3.1 90 0.6 NNW 9 11 5 6 1013.7 1013.9 0.0
 
Date/Time
EST
Temp
°C
App
Temp
°C
Dew
Point
°C
Rel
Hum
%
Delta-T
°C
Wind Press
QNH
hPa
Press
MSL
hPa
Rain since
9am
mm
Dir  Spd
km/h
Gust
km/h
Spd
kts
Gust
kts
23/11:30pm 5.0 1.9 3.5 90 0.6 NNW 9 11 5 6 1013.8 1014.0 0.0
23/11:00pm 5.5 2.5 4.0 90 0.6 NNW 9 11 5 6 1014.2 1014.4 0.0
23/10:30pm 5.2 1.8 3.9 91 0.6 NNW 11 13 6 7 1014.3 1014.5 0.0
23/10:00pm 4.8 1.7 3.5 91 0.5 NNW 9 11 5 6 1014.2 1014.4 0.0
23/09:30pm 4.9 2.1 3.4 90 0.6 NW 7 9 4 5 1014.2 1014.4 0.0
23/09:00pm 4.9 2.3 3.4 90 0.6 NW 6 9 3 5 1014.3 1014.5 0.0
23/08:30pm 5.7 3.0 3.7 87 0.8 NW 7 9 4 5 1014.2 1014.4 0.0
23/08:00pm 6.0 3.4 4.2 88 0.8 NW 7 9 4 5 1014.3 1014.5 0.0
23/07:30pm 6.3 3.8 4.6 89 0.7 NW 7 9 4 5 1014.3 1014.5 0.0
23/07:00pm 6.0 3.0 4.3 89 0.7 NW 9 11 5 6 1014.0 1014.2 0.0
23/06:30pm 6.4 3.1 4.6 88 0.8 NW 11 11 6 6 1013.7 1013.9 0.0
23/06:00pm 6.9 4.4 4.7 86 1.0 WNW 7 9 4 5 1013.4 1013.6 0.0
23/05:30pm 7.8 4.6 4.9 82 1.3 WSW 11 17 6 9 1013.2 1013.4 0.0
23/05:00pm 7.9 3.8 4.3 78 1.6 WNW 15 20 8 11 1012.8 1013.1 0.0
23/04:30pm 8.4 3.8 3.5 71 2.1 W 17 20 9 11 1012.9 1013.2 0.0
23/04:00pm 9.2 3.7 4.2 71 2.2 W 22 33 12 18 1012.8 1013.1 0.0
23/03:30pm 9.9 3.8 2.5 60 3.2 W 24 33 13 18 1012.2 1012.4 0.0
23/03:00pm 9.6 4.3 3.1 64 2.8 W 20 28 11 15 1012.1 1012.3 0.0
23/02:40pm 8.8 2.2 4.2 73 2.0 W 28 48 15 26 1012.0 1012.2 0.0
23/02:30pm 8.6 1.3 4.4 75 1.9 W 32 48 17 26 1012.1 1012.3 0.0
23/02:28pm 10.0 3.3 3.5 64 2.9 W 28 46 15 25 1012.0 1012.2 0.0
23/02:00pm 10.4 2.7 2.3 57 3.5 W 32 39 17 21 1011.7 1011.9 0.0
23/01:30pm 10.1 3.1 1.7 56 3.5 W 28 41 15 22 1011.5 1011.7 0.0
23/01:00pm 10.2 3.2 1.8 56 3.6 WSW 28 37 15 20 1011.5 1011.7 0.0
23/12:30pm 9.9 2.8 1.5 56 3.5 W 28 35 15 19 1011.5 1011.7 0.0
23/12:00pm 10.2 3.7 2.8 60 3.2 WSW 26 37 14 20 1011.8 1012.0 0.0
23/11:30am 9.1 1.8 2.2 62 2.9 SW 30 39 16 21 1011.8 1012.0 0.0
23/11:00am 9.1 3.0 2.9 65 2.7 WSW 24 32 13 17 1011.5 1011.7 0.0
23/10:30am 8.6 2.1 2.4 65 2.6 WSW 26 35 14 19 1011.4 1011.6 0.0
23/10:00am 8.1 2.9 3.4 72 2.0 WSW 20 28 11 15 1010.8 1011.0 0.0
23/09:30am 7.2 2.0 3.4 77 1.6 W 20 28 11 15 1010.6 1010.8 0.0
23/09:00am 6.5 1.4 3.3 80 1.4 W 19 24 10 13 1010.1 1010.3 7.2
23/08:30am 5.8 0.5 3.1 83 1.1 WSW 20 24 11 13 1009.4 1009.6 7.2
23/08:00am 5.5 0.4 3.2 85 1.0 W 19 24 10 13 1008.8 1009.0 7.2
23/07:30am 5.7 0.7 3.7 87 0.8 W 19 30 10 16 1008.2 1008.4 7.2
23/07:00am 5.9 1.0 4.1 88 0.8 WSW 19 26 10 14 1007.5 1007.7 7.2
23/06:30am 6.7 0.5 4.4 85 1.0 WSW 26 41 14 22 1007.0 1007.2 7.2
23/06:00am 6.5 1.5 4.7 88 0.8 W 20 24 11 13 1006.5 1006.7 7.2
23/05:30am 6.8 1.9 5.0 88 0.8 WSW 20 26 11 14 1005.7 1005.8 7.2
23/05:00am 7.0 1.8 5.3 89 0.8 WSW 22 30 12 16 1004.7 1004.9 7.2
23/04:30am 7.0 1.0 5.2 88 0.8 W 26 32 14 17 1004.3 1004.5 7.2
23/04:00am 7.1 1.0 4.9 86 1.0 W 26 32 14 17 1003.7 1003.9 7.2
23/03:30am 7.4 1.0 5.0 85 1.1 WSW 28 37 15 20 1003.0 1003.2 7.2
23/03:00am 7.6 1.2 5.4 86 1.0 WSW 28 39 15 21 1002.2 1002.4 7.2
23/02:50am 7.8 1.1 5.6 86 1.0 WSW 30 48 16 26 1001.9 1002.1 7.2
23/02:30am 7.8 1.2 6.1 89 0.8 W 30 39 16 21 1001.4 1001.6 7.2
23/02:00am 7.8 0.8 5.9 88 0.9 W 32 44 17 24 1000.3 1000.4 7.2
23/01:30am 7.8 0.2 5.6 86 1.0 WNW 35 50 19 27 1000.1 1000.2 7.2
23/01:17am 7.8 0.6 5.8 87 0.9 WNW 33 54 18 29 1000.1 1000.2 7.2
23/01:00am 7.8 1.4 5.4 85 1.1 NW 28 39 15 21 999.8 999.9 6.6
23/12:32am 7.7 1.3 5.2 84 1.1 NW 28 46 15 25 999.5 999.6 6.6
23/12:30am 7.6 0.8 5.1 84 1.1 WNW 30 46 16 25 999.6 999.7 6.6
23/12:00am 7.6 -1.8 4.2 79 1.5 WNW 43 65 23 35 999.5 999.6 6.2
 
Date/Time
EST
Temp
°C
App
Temp
°C
Dew
Point
°C
Rel
Hum
%
Delta-T
°C
Wind Press
QNH
hPa
Press
MSL
hPa
Rain since
9am
mm
Dir  Spd
km/h
Gust
km/h
Spd
kts
Gust
kts
22/11:56pm 7.2 -0.7 4.5 83 1.2 WNW 35 57 19 31 999.6 999.7 6.2
22/11:30pm 7.5 -2.2 3.7 77 1.6 W 44 61 24 33 999.0 999.1 6.2
22/11:14pm 8.0 0.6 5.1 82 1.3 WNW 33 74 18 40 999.4 999.5 5.4
22/11:00pm 9.1 1.0 5.3 77 1.7 WNW 37 56 20 30 998.9 999.0 5.0
22/10:40pm 9.2 1.7 6.3 82 1.3 WNW 35 54 19 29 998.7 998.8 5.0
22/10:30pm 9.3 1.1 6.4 82 1.4 WNW 39 50 21 27 998.6 998.7 5.0
22/10:18pm 9.1 1.3 6.5 84 1.2 W 37 56 20 30 998.5 998.6 5.0
22/10:00pm 9.3 0.3 6.2 81 1.5 WNW 43 54 23 29 998.3 998.4 5.0
22/09:30pm 8.6 1.5 6.6 87 0.9 WNW 33 46 18 25 998.2 998.3 5.0
22/09:01pm 9.0 0.0 6.6 85 1.1 WNW 43 61 23 33 998.0 998.2 4.8
22/09:00pm 9.0 0.1 6.8 86 1.0 WNW 43 54 23 29 998.0 998.2 4.8
22/08:40pm 10.0 2.6 6.7 80 1.6 WNW 35 54 19 29 998.2 998.3 4.4
22/08:30pm 10.2 3.4 6.9 80 1.6 WNW 32 48 17 26 998.0 998.2 4.4
22/08:01pm 10.2 3.3 7.1 81 1.5 NW 33 52 18 28 997.7 997.9 4.4
22/08:00pm 10.2 2.9 7.1 81 1.5 NW 35 52 19 28 997.7 997.9 4.4
22/07:32pm 10.3 3.0 7.2 81 1.5 WNW 35 56 19 30 997.4 997.6 4.4
22/07:30pm 10.2 2.9 7.1 81 1.5 WNW 35 48 19 26 997.4 997.6 4.4
22/07:08pm 9.9 2.6 7.2 83 1.3 WNW 35 54 19 29 997.2 997.4 4.4
22/07:00pm 10.0 1.6 7.3 83 1.3 W 41 54 22 29 997.2 997.4 4.4
22/06:41pm 9.9 3.2 8.0 88 0.9 WNW 33 56 18 30 997.7 997.9 3.8
22/06:30pm 9.6 3.8 7.9 89 0.8 WNW 28 39 15 21 997.7 997.9 3.4
22/06:04pm 10.3 3.2 8.1 86 1.1 W 35 54 19 29 997.7 997.9 2.6
22/06:00pm 10.3 4.2 8.2 87 1.0 WNW 30 54 16 29 997.6 997.8 2.6
22/05:57pm 10.5 5.2 8.4 87 1.0 WNW 26 54 14 29 997.7 997.9 2.6
22/05:30pm 11.5 7.5 8.9 84 1.3 NW 20 30 11 16 997.0 997.2 1.6
22/05:00pm 11.6 8.2 9.0 84 1.3 WNW 17 24 9 13 997.0 997.2 1.6
22/04:30pm 11.5 6.3 8.7 83 1.4 WNW 26 32 14 17 997.4 997.6 1.6
22/04:00pm 11.2 5.1 8.4 83 1.4 W 30 39 16 21 997.4 997.6 1.6
22/03:30pm 11.2 4.4 9.1 87 1.1 W 35 46 19 25 997.7 997.9 1.4
22/03:20pm 11.2 3.9 8.9 86 1.2 W 37 56 20 30 997.8 998.0 1.4
22/03:00pm 11.7 3.3 9.1 84 1.3 W 43 57 23 31 997.6 997.8 1.0
22/02:36pm 11.1 3.9 9.2 88 1.0 WNW 37 56 20 30 997.9 998.1 0.8
22/02:30pm 11.2 2.9 9.3 88 1.0 W 43 57 23 31 998.0 998.2 0.8
22/02:23pm 12.1 4.9 9.1 82 1.5 W 37 57 20 31 997.5 997.7 0.0
22/02:19pm 12.7 5.8 8.8 77 2.0 W 35 48 19 26 997.5 997.7 0.0
22/02:00pm 15.0 7.9 9.4 69 2.9 NW 37 57 20 31 997.1 997.3 0.0
22/01:30pm 15.1 7.2 9.5 69 2.9 NW 41 61 22 33 997.6 997.8 0.0
22/01:20pm 14.6 7.8 9.4 71 2.7 NW 35 54 19 29 997.9 998.1 0.0
22/01:00pm 14.7 8.8 10.5 76 2.2 NW 32 43 17 23 998.6 998.7 0.0
22/12:53pm 14.2 8.1 9.8 75 2.3 WNW 32 50 17 27 998.7 998.8 0.0
22/12:30pm 14.1 7.4 9.7 75 2.3 NW 35 52 19 28 999.0 999.1 0.0
22/12:08pm 14.1 7.7 9.5 74 2.4 NW 33 52 18 28 999.3 999.4 0.0
22/12:00pm 14.0 7.7 9.8 76 2.2 NW 33 48 18 26 999.6 999.7 0.0
22/11:35am 13.9 7.7 9.5 75 2.3 NW 32 50 17 27 999.6 999.7 0.0
22/11:30am 14.0 8.0 10.0 77 2.1 NW 32 44 17 24 999.9 1000.0 0.0
22/11:00am 13.5 7.2 9.7 78 2.0 NW 33 46 18 25 1000.2 1000.3 0.0
22/10:30am 13.4 7.4 10.0 80 1.8 NW 32 46 17 25 1000.5 1000.7 0.0
22/10:00am 13.3 7.8 10.5 83 1.5 NW 30 39 16 21 1000.7 1000.9 0.0
22/09:30am 13.4 7.9 10.4 82 1.6 NW 30 39 16 21 1000.8 1001.0 0.0
22/09:00am 13.4 8.2 10.4 82 1.6 NW 28 39 15 21 1000.8 1001.0 4.6
22/08:30am 13.3 8.1 10.3 82 1.6 NW 28 35 15 19 1000.8 1001.0 4.6
22/08:00am 13.4 7.2 10.2 81 1.7 NW 33 44 18 24 1000.6 1000.8 4.6
22/07:30am 13.4 8.8 10.9 85 1.3 NW 26 32 14 17 1000.9 1001.1 4.2
22/07:00am 13.5 9.3 11.0 85 1.3 NW 24 33 13 18 1000.8 1001.0 4.0
22/06:30am 13.1 10.3 11.5 90 0.9 NW 17 24 9 13 1000.8 1001.0 4.0
22/06:00am 13.3 9.5 11.2 87 1.1 NW 22 28 12 15 1000.7 1000.9 4.0
22/05:30am 13.3 9.9 11.2 87 1.1 NW 20 26 11 14 1001.0 1001.2 4.0
22/05:00am 13.2 10.0 11.1 87 1.1 NNW 19 26 10 14 1000.7 1000.9 4.0
22/04:30am 13.5 11.0 11.2 86 1.2 NW 15 22 8 12 1001.3 1001.5 4.0
22/04:00am 13.9 9.9 11.8 87 1.1 W 24 30 13 16 1002.2 1002.4 3.8
22/03:30am 14.0 9.8 12.4 90 0.9 W 26 41 14 22 1002.1 1002.3 3.8
22/03:16am 14.4 8.7 13.1 92 0.7 W 35 50 19 27 1002.0 1002.2 3.6
22/03:11am 15.6 10.3 14.1 91 0.9 NW 35 48 19 26 1002.2 1002.4 3.4
22/03:00am 16.3 12.5 14.8 91 0.9 NNW 28 41 15 22 1001.3 1001.5 1.8
22/02:30am 15.9 13.2 14.6 92 0.7 NNW 22 33 12 18 1001.8 1002.0 1.2
22/02:00am 16.5 12.6 14.5 88 1.2 N 28 44 15 24 1001.6 1001.8 0.0
22/01:48am 16.7 12.4 14.3 86 1.4 N 30 48 16 26 1001.5 1001.7 0.0
22/01:30am 16.9 12.2 14.4 85 1.4 N 32 48 17 26 1002.3 1002.5 0.0
22/01:06am 16.6 12.6 14.2 86 1.4 N 28 46 15 25 1002.6 1002.8 0.0
22/01:00am 16.7 12.3 14.2 85 1.4 N 30 46 16 25 1002.8 1003.0 0.0
22/12:32am 16.6 12.6 14.1 85 1.4 N 28 46 15 25 1003.3 1003.5 0.0
22/12:30am 16.7 12.3 14.2 85 1.4 N 30 46 16 25 1003.4 1003.6 0.0
22/12:05am 16.6 12.6 14.1 85 1.4 N 28 46 15 25 1003.8 1004.0 0.0
22/12:00am 16.6 13.0 14.1 85 1.4 N 26 44 14 24 1003.8 1004.0 0.0
 
Date/Time
EST
Temp
°C
App
Temp
°C
Dew
Point
°C
Rel
Hum
%
Delta-T
°C
Wind Press
QNH
hPa
Press
MSL
hPa
Rain since
9am
mm
Dir  Spd
km/h
Gust
km/h
Spd
kts
Gust
kts
21/11:30pm 16.4 13.8 13.7 84 1.5 N 20 35 11 19 1004.6 1004.8 0.0
21/11:00pm 16.2 13.6 13.7 85 1.4 N 20 32 11 17 1005.2 1005.4 0.0
21/10:30pm 15.9 13.4 13.4 85 1.4 N 19 30 10 16 1005.9 1006.0 0.0
21/10:00pm 15.6 13.3 12.9 84 1.5 N 17 28 9 15 1006.6 1006.8 0.0
21/09:30pm 15.5 13.0 12.3 81 1.8 NNE 17 32 9 17 1006.9 1007.1 0.0
21/09:00pm 15.5 13.2 11.9 79 2.0 NNE 15 24 8 13 1006.9 1007.1 0.0
21/08:30pm 15.5 13.6 11.9 79 2.0 NNE 13 19 7 10 1007.5 1007.7 0.0
21/08:00pm 15.5 13.6 11.9 79 2.0 N 13 20 7 11 1008.0 1008.2 0.0
21/07:30pm 15.5 13.3 12.1 80 1.9 N 15 20 8 11 1008.1 1008.3 0.0
21/07:00pm 15.7 13.6 12.3 80 1.9 NNE 15 20 8 11 1008.1 1008.3 0.0
21/06:30pm 15.7 14.0 12.5 81 1.8 N 13 17 7 9 1008.4 1008.6 0.0
21/06:00pm 15.7 14.9 13.0 84 1.5 NNE 9 11 5 6 1009.0 1009.2 0.0
21/05:30pm 15.9 15.2 13.2 84 1.5 NNE 9 13 5 7 1009.3 1009.5 0.0
21/05:00pm 16.6 15.9 13.3 81 1.9 N 9 15 5 8 1009.8 1010.0 0.0
21/04:30pm 17.0 16.0 13.5 80 2.0 N 11 17 6 9 1010.3 1010.5 0.0
21/04:00pm 16.9 15.1 13.4 80 2.0 N 15 24 8 13 1010.4 1010.6 0.0
21/03:30pm 16.7 13.8 13.0 79 2.1 N 20 30 11 16 1010.3 1010.5 0.0
21/03:00pm 16.5 13.6 12.8 79 2.1 N 20 32 11 17 1010.6 1010.8 0.0
21/02:30pm 16.6 14.1 13.5 82 1.8 N 19 30 10 16 1011.4 1011.6 0.0
21/02:00pm 16.6 13.8 13.3 81 1.9 NNW 20 30 11 16 1011.8 1012.0 0.0
21/01:30pm 16.8 14.3 13.5 81 1.9 N 19 28 10 15 1012.0 1012.2 0.0
21/01:00pm 16.7 14.6 13.6 82 1.8 N 17 22 9 12 1012.6 1012.9 0.0

Other Formats:

Comma delimited format used in spreadsheet applications
http://www.bom.gov.au/fwo/IDV60801/IDV60801.94827.axf

JavaScript Object Notation format (JSON) in row-major order
http://www.bom.gov.au/fwo/IDV60801/IDV60801.94827.json